Time;durP1;ratioP1;P1;durP2;ratioP2;P2;SDS_P1;SDS_P2;PMS_P1;PMS_P2;Temp;Humidity;BMP_temperature;BMP_pressure;BME280_temperature;BME280_humidity;BME280_pressure;Samples;Min_cycle;Max_cycle;Signal;HPM_P1;HPM_P2
2023/09/05 00:02:25;;;;;;;0.57;0.57;;;;;;;32.39;45.54;100334.47;7395127;19;20035;-89
2023/09/05 00:04:56;;;;;;;1.17;0.82;;;;;;;30.65;53.70;100339.25;7393694;19;20018;-92
2023/09/05 00:07:22;;;;;;;0.47;0.43;;;;;;;39.15;39.72;100324.38;7395062;19;20038;-91
2023/09/05 00:09:49;;;;;;;0.75;0.47;;;;;;;37.12;42.74;100328.38;7392505;19;20556;-91
2023/09/05 00:12:15;;;;;;;0.22;0.22;;;;;;;26.42;67.74;100327.94;7392036;19;20078;-89
2023/09/05 00:14:42;;;;;;;2.83;0.70;;;;;;;29.05;69.89;100325.19;7394157;19;20014;-88
2023/09/05 00:17:08;;;;;;;0.93;0.70;;;;;;;32.54;59.41;100326.19;7394921;19;20086;-89
2023/09/05 00:19:34;;;;;;;6.68;0.65;;;;;;;32.40;47.66;100322.31;7395270;19;20017;-89
2023/09/05 00:22:00;;;;;;;5.07;0.93;;;;;;;28.37;69.54;100328.09;7393259;19;20022;-89
2023/09/05 00:24:39;;;;;;;1.27;1.00;;;;;;;25.47;77.34;100345.44;7396008;19;20014;-89
2023/09/05 00:27:07;;;;;;;2.85;1.17;;;;;;;36.26;49.40;100321.06;7396222;19;20559;-89
2023/09/05 00:29:33;;;;;;;0.47;0.28;;;;;;;39.74;38.88;100316.53;7392664;19;20018;-89
2023/09/05 00:32:00;;;;;;;1.75;0.43;;;;;;;40.58;36.32;100315.19;7390760;19;20018;-89
2023/09/05 00:34:27;;;;;;;1.50;0.35;;;;;;;33.27;45.67;100322.31;7392681;19;20431;-88
2023/09/05 00:36:53;;;;;;;0.35;0.30;;;;;;;39.87;36.51;100317.72;7392544;19;20015;-90
2023/09/05 00:39:20;;;;;;;1.55;0.80;;;;;;;40.54;35.23;100323.81;7392351;19;20051;-88
2023/09/05 00:41:46;;;;;;;0.90;0.60;;;;;;;41.33;33.56;100322.06;7395542;19;20018;-89
2023/09/05 00:44:14;;;;;;;0.22;0.17;;;;;;;41.66;32.11;100311.34;7397216;19;20014;-88
2023/09/05 00:46:45;;;;;;;1.20;1.00;;;;;;;41.62;32.13;100314.13;7397902;19;20014;-89
2023/09/05 00:49:15;;;;;;;1.30;0.52;;;;;;;31.75;41.48;100339.38;7399852;19;20128;-89
2023/09/05 00:51:45;;;;;;;2.90;0.57;;;;;;;22.23;100.00;100340.50;7399266;19;20027;-88
2023/09/05 00:54:12;;;;;;;1.27;0.55;;;;;;;34.80;55.48;100323.09;7399358;19;20019;-89
2023/09/05 00:56:38;;;;;;;1.15;0.50;;;;;;;36.74;44.51;100311.94;7397117;19;20523;-89
2023/09/05 00:59:05;;;;;;;1.55;0.60;;;;;;;23.25;93.09;100336.56;7403652;19;20038;-90
2023/09/05 01:01:31;;;;;;;1.13;0.95;;;;;;;20.30;100.00;100344.16;7399864;19;20027;-89
2023/09/05 01:03:58;;;;;;;0.90;0.55;;;;;;;22.46;100.00;100326.63;7399464;19;20015;-89
2023/09/05 01:06:37;;;;;;;0.20;0.20;;;;;;;15.81;100.00;100338.47;7397980;19;20014;-89
2023/09/05 01:09:27;;;;;;;6.55;0.98;;;;;;;14.80;100.00;100341.59;7398640;19;20031;-89
2023/09/05 01:11:54;;;;;;;1.38;0.68;;;;;;;17.57;100.00;100334.81;7398197;19;20019;-89
2023/09/05 01:14:20;;;;;;;1.35;0.55;;;;;;;17.92;100.00;100332.22;7399223;19;20610;-88
2023/09/05 01:16:47;;;;;;;3.83;1.08;;;;;;;17.91;100.00;100319.41;7399713;19;20022;-89
2023/09/05 01:19:15;;;;;;;1.10;0.75;;;;;;;17.90;100.00;100329.16;7399217;19;20031;-89
2023/09/05 01:22:13;;;;;;;1.85;0.73;;;;;;;33.94;62.88;100304.16;7402136;19;20410;-88
2023/09/05 01:24:40;;;;;;;4.03;0.52;;;;;;;37.44;44.66;100293.56;7402962;19;20101;-89
2023/09/05 01:27:17;;;;;;;0.98;0.43;;;;;;;37.73;42.11;100291.28;7401823;19;20014;-89
2023/09/05 01:29:46;;;;;;;3.50;0.50;;;;;;;24.05;93.92;100312.09;7401092;19;20576;-89
2023/09/05 01:32:12;;;;;;;1.92;0.57;;;;;;;19.33;100.00;100312.13;7396049;19;20094;-88
2023/09/05 01:34:39;;;;;;;1.60;1.13;;;;;;;15.54;100.00;100310.97;7400807;19;20086;-89
2023/09/05 01:37:06;;;;;;;3.42;1.17;;;;;;;16.37;100.00;100300.97;7397339;19;20019;-89
2023/09/05 01:39:32;;;;;;;2.67;0.95;;;;;;;16.90;100.00;100293.75;7396924;19;20006;-89
2023/09/05 01:41:59;;;;;;;0.57;0.50;;;;;;;15.93;100.00;100297.97;7402560;19;20018;-89
2023/09/05 01:44:26;;;;;;;0.95;0.50;;;;;;;15.72;100.00;100299.34;7395776;19;20579;-89
2023/09/05 01:46:52;;;;;;;0.50;0.30;;;;;;;17.14;100.00;100288.44;7397522;19;20038;-90
2023/09/05 01:49:18;;;;;;;0.68;0.52;;;;;;;15.86;100.00;100287.97;7397236;19;20018;-90
2023/09/05 01:51:44;;;;;;;2.08;0.75;;;;;;;24.40;100.00;100291.44;7396467;19;20021;-89
2023/09/05 01:54:10;;;;;;;1.75;0.40;;;;;;;17.36;100.00;100296.91;7395496;19;20052;-88
2023/09/05 01:56:36;;;;;;;2.63;0.32;;;;;;;16.30;100.00;100293.03;7395216;19;20010;-91
2023/09/05 01:59:03;;;;;;;1.83;1.23;;;;;;;16.34;100.00;100282.31;7391707;19;20545;-89
2023/09/05 02:01:29;;;;;;;0.68;0.68;;;;;;;16.41;100.00;100281.06;7392362;19;20014;-89
2023/09/05 02:03:55;;;;;;;1.48;0.32;;;;;;;16.27;100.00;100296.84;7395800;19;20015;-89
2023/09/05 02:06:21;;;;;;;1.55;0.43;;;;;;;15.96;100.00;100290.56;7393040;19;20133;-89
2023/09/05 02:08:48;;;;;;;2.80;1.17;;;;;;;15.29;100.00;100294.91;7393389;19;20014;-89
2023/09/05 02:11:14;;;;;;;0.40;0.40;;;;;;;15.84;100.00;100281.31;7393434;19;20018;-90
2023/09/05 02:13:41;;;;;;;0.63;0.47;;;;;;;16.62;100.00;100286.03;7395125;19;20014;-89
2023/09/05 02:16:07;;;;;;;3.85;0.95;;;;;;;16.72;100.00;100277.38;7394877;19;20015;-90
2023/09/05 02:18:33;;;;;;;1.13;1.02;;;;;;;16.84;100.00;100267.69;7400664;19;20042;-89
2023/09/05 02:21:01;;;;;;;1.50;0.68;;;;;;;16.87;100.00;100263.84;7399933;19;20468;-89
2023/09/05 02:23:33;;;;;;;1.00;0.77;;;;;;;16.89;100.00;100266.94;7392788;19;20689;-89
2023/09/05 02:26:02;;;;;;;1.25;0.50;;;;;;;16.89;100.00;100264.09;7397311;19;20028;-89
2023/09/05 02:28:28;;;;;;;0.88;0.88;;;;;;;16.87;100.00;100263.84;7400322;19;20082;-89
2023/09/05 02:30:55;;;;;;;0.82;0.60;;;;;;;16.86;100.00;100253.88;7395443;19;20038;-89
2023/09/05 02:33:22;;;;;;;1.42;0.80;;;;;;;16.85;100.00;100252.34;7394199;19;20854;-89
2023/09/05 02:35:49;;;;;;;0.45;0.40;;;;;;;16.83;100.00;100249.28;7393993;19;20374;-90
2023/09/05 02:38:16;;;;;;;2.22;1.15;;;;;;;16.80;100.00;100248.25;7399892;19;20119;-89
2023/09/05 02:40:46;;;;;;;3.47;1.17;;;;;;;16.78;100.00;100253.63;7397538;19;20010;-89
2023/09/05 02:43:13;;;;;;;1.73;0.87;;;;;;;16.74;100.00;100241.06;7394276;19;20014;-90
2023/09/05 02:45:40;;;;;;;1.33;1.13;;;;;;;16.68;100.00;100241.03;7394815;19;20011;-89
2023/09/05 02:48:07;;;;;;;2.00;1.20;;;;;;;16.73;100.00;100250.78;7398967;19;20365;-90
2023/09/05 02:50:33;;;;;;;2.60;0.50;;;;;;;16.67;100.00;100242.34;7399502;19;20022;-89
2023/09/05 02:52:59;;;;;;;0.90;0.55;;;;;;;16.64;100.00;100246.16;7393391;19;20011;-90
2023/09/05 02:55:25;;;;;;;1.92;0.52;;;;;;;15.89;100.00;100235.63;7392778;19;20022;-89
2023/09/05 02:57:52;;;;;;;1.08;0.60;;;;;;;16.33;100.00;100233.00;7397440;19;20014;-90
2023/09/05 03:00:19;;;;;;;0.93;0.43;;;;;;;16.44;100.00;100235.06;7394072;19;20062;-90
2023/09/05 03:02:46;;;;;;;1.75;1.00;;;;;;;16.98;100.00;100227.28;7392326;19;20018;-90
2023/09/05 03:05:15;;;;;;;4.25;0.90;;;;;;;26.44;100.00;100211.00;7391807;19;20018;-90
2023/09/05 03:07:41;;;;;;;3.22;1.42;;;;;;;35.12;54.42;100209.13;7398936;19;20045;-89
2023/09/05 03:10:08;;;;;;;2.90;1.15;;;;;;;37.10;45.46;100208.44;7394754;19;20010;-89
2023/09/05 03:12:34;;;;;;;4.22;0.98;;;;;;;35.90;43.51;100203.16;7393246;19;20014;-89
2023/09/05 03:15:00;;;;;;;2.80;0.82;;;;;;;38.25;40.97;100199.06;7393831;19;20014;-90
2023/09/05 03:17:27;;;;;;;1.40;1.30;;;;;;;38.75;38.99;100189.47;7394373;19;20476;-90
2023/09/05 03:19:53;;;;;;;6.28;1.35;;;;;;;39.13;37.41;100190.25;7395417;19;20081;-89
2023/09/05 03:22:19;;;;;;;2.13;1.30;;;;;;;39.25;36.28;100184.88;7393127;19;20015;-89
2023/09/05 03:24:45;;;;;;;1.45;0.60;;;;;;;39.30;35.79;100186.53;7394833;19;20038;-89
2023/09/05 03:27:13;;;;;;;3.05;1.25;;;;;;;39.25;35.43;100171.06;7394688;19;20018;-89
2023/09/05 03:29:39;;;;;;;4.90;1.52;;;;;;;39.50;34.67;100169.03;7393609;19;20019;-89
2023/09/05 03:32:05;;;;;;;4.03;1.02;;;;;;;36.39;38.00;100167.25;7393570;19;20033;-89
2023/09/05 03:34:32;;;;;;;3.45;1.40;;;;;;;25.60;90.05;100184.00;7393053;19;20010;-89
2023/09/05 03:36:58;;;;;;;1.20;0.88;;;;;;;38.16;39.85;100168.09;7393295;19;20352;-89
2023/09/05 03:39:25;;;;;;;3.28;0.90;;;;;;;24.47;80.00;100181.75;7393648;19;20011;-89
2023/09/05 03:41:51;;;;;;;2.13;0.73;;;;;;;37.35;42.82;100163.81;7398590;19;20019;-90
2023/09/05 03:44:17;;;;;;;5.43;1.38;;;;;;;39.52;36.38;100166.94;7393657;19;20047;-89
2023/09/05 03:46:44;;;;;;;2.08;0.70;;;;;;;40.01;34.52;100163.59;7394032;19;20480;-89
2023/09/05 03:49:11;;;;;;;2.00;0.63;;;;;;;39.98;33.98;100159.84;7394557;19;20024;-89
2023/09/05 03:51:37;;;;;;;6.90;1.38;;;;;;;39.93;33.24;100158.22;7391998;19;20019;-90
2023/09/05 03:54:03;;;;;;;2.13;0.88;;;;;;;40.22;32.37;100162.09;7392620;19;20051;-89
2023/09/05 03:56:29;;;;;;;2.67;1.38;;;;;;;40.44;31.91;100168.69;7393372;19;20074;-89
2023/09/05 03:58:55;;;;;;;2.40;1.48;;;;;;;40.57;31.24;100150.88;7393758;19;20369;-89
2023/09/05 04:01:21;;;;;;;4.25;0.50;;;;;;;40.14;31.49;100153.81;7391964;19;20018;-89
2023/09/05 04:03:48;;;;;;;0.52;0.43;;;;;;;39.78;31.74;100153.31;7390660;19;20016;-89
2023/09/05 04:06:14;;;;;;;5.05;1.48;;;;;;;39.79;31.43;100148.97;7391416;19;20011;-89
2023/09/05 04:08:40;;;;;;;5.43;1.77;;;;;;;39.27;31.62;100152.88;7392652;19;20011;-89
2023/09/05 04:11:06;;;;;;;1.48;0.98;;;;;;;39.07;31.61;100157.97;7392336;19;20135;-89
2023/09/05 04:13:32;;;;;;;2.55;0.77;;;;;;;38.62;31.87;100162.03;7392334;19;20015;-89
2023/09/05 04:16:06;;;;;;;2.15;1.13;;;;;;;38.50;31.85;100178.25;7392714;19;20025;-88
2023/09/05 04:18:34;;;;;;;2.85;1.00;;;;;;;38.32;31.94;100174.59;7396570;19;20473;-89
2023/09/05 04:21:00;;;;;;;3.03;0.90;;;;;;;38.44;31.53;100181.66;7395995;19;20112;-89
2023/09/05 04:23:26;;;;;;;1.48;0.80;;;;;;;38.53;31.39;100171.13;7390246;19;20022;-89
2023/09/05 04:26:01;;;;;;;0.73;0.60;;;;;;;38.67;31.63;100169.50;7392024;19;20393;-89
2023/09/05 04:28:29;;;;;;;1.23;0.70;;;;;;;38.72;31.57;100163.88;7397134;19;20022;-90
2023/09/05 04:30:56;;;;;;;0.82;0.45;;;;;;;38.70;30.97;100155.81;7391201;19;20022;-89
2023/09/05 04:33:24;;;;;;;3.13;1.27;;;;;;;38.60;30.90;100167.78;7388569;19;20007;-89
2023/09/05 04:35:51;;;;;;;1.60;0.98;;;;;;;25.08;49.60;100165.56;7390248;19;20050;-90
2023/09/05 04:38:17;;;;;;;3.90;0.82;;;;;;;19.05;100.00;100188.09;7396197;19;20019;-90
2023/09/05 04:40:43;;;;;;;0.80;0.80;;;;;;;17.56;100.00;100181.22;7394216;19;20018;-89
2023/09/05 04:43:09;;;;;;;1.60;1.02;;;;;;;16.88;100.00;100183.78;7389890;19;20603;-89
2023/09/05 04:45:35;;;;;;;0.80;0.65;;;;;;;19.85;100.00;100179.88;7392608;19;20053;-89
2023/09/05 04:48:02;;;;;;;4.30;1.23;;;;;;;15.83;100.00;100176.59;7395703;19;20019;-90
2023/09/05 04:50:28;;;;;;;3.60;1.33;;;;;;;15.99;100.00;100171.56;7393727;19;20014;-88
2023/09/05 04:52:54;;;;;;;2.63;1.23;;;;;;;15.87;100.00;100171.50;7389866;19;20078;-89
2023/09/05 04:55:20;;;;;;;1.73;0.77;;;;;;;15.78;100.00;100162.56;7391085;19;20019;-91
2023/09/05 04:57:47;;;;;;;3.83;1.20;;;;;;;15.68;100.00;100164.78;7394480;19;20019;-88
2023/09/05 05:00:14;;;;;;;2.13;1.30;;;;;;;15.55;100.00;100160.91;7391029;19;20391;-89
2023/09/05 05:02:40;;;;;;;3.58;0.98;;;;;;;15.49;100.00;100168.50;7390113;19;20082;-88
2023/09/05 05:05:07;;;;;;;2.85;1.27;;;;;;;15.02;100.00;100173.56;7390592;19;20012;-89
2023/09/05 05:07:33;;;;;;;3.55;1.70;;;;;;;15.06;100.00;100165.66;7393253;19;20018;-89
2023/09/05 05:09:59;;;;;;;3.30;1.45;;;;;;;14.91;100.00;100176.25;7391175;19;20019;-89
2023/09/05 05:12:25;;;;;;;2.55;1.00;;;;;;;14.88;100.00;100185.66;7389961;19;20011;-89
2023/09/05 05:14:51;;;;;;;2.42;1.23;;;;;;;14.89;100.00;100189.25;7390232;19;20021;-89
2023/09/05 05:17:17;;;;;;;5.25;1.42;;;;;;;14.93;100.00;100184.94;7391422;19;20015;-89
2023/09/05 05:19:43;;;;;;;4.80;1.00;;;;;;;14.85;100.00;100200.69;7391443;19;20515;-89
2023/09/05 05:22:11;;;;;;;2.15;0.88;;;;;;;15.16;100.00;100189.44;7390679;19;20019;-89
2023/09/05 05:24:37;;;;;;;1.63;0.82;;;;;;;14.95;100.00;100199.25;7389808;19;20010;-89
2023/09/05 05:27:03;;;;;;;2.47;1.25;;;;;;;14.88;100.00;100194.06;7391986;19;20014;-89
2023/09/05 05:29:32;;;;;;;3.85;0.73;;;;;;;14.84;100.00;100193.53;7396466;19;20078;-89
2023/09/05 05:32:01;;;;;;;3.92;1.35;;;;;;;14.84;100.00;100199.13;7396704;19;20014;-89
2023/09/05 05:34:29;;;;;;;2.50;1.17;;;;;;;14.86;100.00;100207.81;7399067;19;20199;-89
2023/09/05 05:36:55;;;;;;;2.15;1.17;;;;;;;14.83;100.00;100203.22;7396044;19;20007;-89
2023/09/05 05:39:22;;;;;;;1.48;1.00;;;;;;;14.82;100.00;100200.91;7396749;19;20013;-90
2023/09/05 05:41:49;;;;;;;1.85;1.45;;;;;;;14.84;100.00;100198.38;7402500;19;20014;-90
2023/09/05 05:44:15;;;;;;;1.30;0.85;;;;;;;14.86;100.00;100191.00;7398170;19;20085;-90
2023/09/05 05:46:42;;;;;;;3.65;1.27;;;;;;;14.74;100.00;100200.59;7397007;19;20014;-90
2023/09/05 05:49:09;;;;;;;4.47;1.65;;;;;;;15.28;100.00;100192.34;7396771;19;20022;-90
2023/09/05 05:51:37;;;;;;;7.32;1.67;;;;;;;15.42;100.00;100194.22;7396704;19;20103;-90
2023/09/05 05:54:03;;;;;;;3.85;1.20;;;;;;;15.46;100.00;100198.38;7395829;19;20411;-90
2023/09/05 05:56:30;;;;;;;18.40;2.28;;;;;;;14.90;100.00;100197.16;7396153;19;20019;-89
2023/09/05 05:58:56;;;;;;;1.67;1.48;;;;;;;15.40;100.00;100188.34;7397651;19;20015;-89
2023/09/05 06:01:22;;;;;;;2.70;0.77;;;;;;;15.40;100.00;100191.16;7396376;19;20014;-89
2023/09/05 06:03:48;;;;;;;0.85;0.85;;;;;;;15.62;100.00;100188.50;7394222;19;20034;-89
2023/09/05 06:06:14;;;;;;;4.47;1.30;;;;;;;15.68;100.00;100187.25;7396156;19;20033;-92
2023/09/05 06:08:40;;;;;;;2.47;0.93;;;;;;;25.65;100.00;100172.41;7396120;19;20015;-90
2023/09/05 06:11:07;;;;;;;5.50;1.52;;;;;;;35.03;53.45;100160.84;7396600;19;20345;-91
2023/09/05 06:13:33;;;;;;;6.60;1.02;;;;;;;37.05;44.75;100152.31;7394328;19;20023;-92
2023/09/05 06:15:59;;;;;;;5.63;1.23;;;;;;;38.54;40.42;100150.06;7396625;19;20022;-91
2023/09/05 06:18:25;;;;;;;1.80;1.23;;;;;;;38.99;38.66;100140.16;7400384;19;20018;-91
2023/09/05 06:20:51;;;;;;;9.05;2.08;;;;;;;39.21;37.25;100146.84;7399577;19;20362;-91
2023/09/05 06:23:18;;;;;;;4.35;1.52;;;;;;;39.57;36.46;100142.34;7398669;19;20021;-91
2023/09/05 06:25:44;;;;;;;8.27;2.00;;;;;;;39.80;35.82;100144.63;7397293;19;20015;-91
2023/09/05 06:28:10;;;;;;;1.90;0.68;;;;;;;39.96;34.79;100145.16;7400257;19;20021;-91
2023/09/05 06:30:36;;;;;;;4.75;1.13;;;;;;;40.03;34.49;100143.22;7397275;19;20037;-91
2023/09/05 06:33:03;;;;;;;6.15;1.52;;;;;;;39.49;35.37;100139.13;7394737;19;20006;-92
2023/09/05 06:35:29;;;;;;;5.60;1.50;;;;;;;39.98;34.69;100135.75;7395172;19;20022;-90
2023/09/05 06:37:55;;;;;;;2.25;0.90;;;;;;;40.13;34.35;100145.75;7399316;19;20014;-89
2023/09/05 06:40:23;;;;;;;10.00;2.00;;;;;;;40.22;33.94;100142.41;7394286;19;20018;-90
2023/09/05 06:42:51;;;;;;;6.38;2.03;;;;;;;39.61;35.01;100138.84;7393691;19;20070;-90
2023/09/05 06:45:17;;;;;;;5.55;1.90;;;;;;;39.87;34.67;100136.84;7395316;19;20025;-89
2023/09/05 06:47:43;;;;;;;7.30;2.03;;;;;;;31.64;45.77;100147.06;7397813;19;20010;-89
2023/09/05 06:50:10;;;;;;;5.32;1.75;;;;;;;36.94;43.45;100135.81;7396323;19;20026;-89
2023/09/05 06:52:37;;;;;;;6.80;1.77;;;;;;;38.32;41.01;100146.25;7393072;19;20014;-89
2023/09/05 06:55:03;;;;;;;5.28;1.52;;;;;;;39.92;37.19;100139.19;7395036;19;20022;-89
2023/09/05 06:57:29;;;;;;;6.53;1.85;;;;;;;40.44;35.66;100148.22;7396031;19;20357;-89
2023/09/05 06:59:55;;;;;;;12.50;2.67;;;;;;;40.72;35.10;100152.03;7395757;19;20066;-89
2023/09/05 07:02:21;;;;;;;7.90;2.53;;;;;;;40.75;34.86;100156.53;7393877;19;20037;-89
2023/09/05 07:04:47;;;;;;;6.00;2.47;;;;;;;40.95;34.76;100159.34;7397034;19;20015;-89
2023/09/05 07:07:15;;;;;;;7.72;2.47;;;;;;;41.23;34.42;100166.03;7395634;19;20010;-90
2023/09/05 07:09:41;;;;;;;3.80;1.23;;;;;;;41.27;34.00;100175.69;7394057;19;20014;-90
2023/09/05 07:12:07;;;;;;;2.47;1.75;;;;;;;41.16;33.63;100170.94;7393656;19;20014;-90
2023/09/05 07:14:34;;;;;;;3.10;1.65;;;;;;;41.15;33.68;100181.13;7393994;19;20472;-89
2023/09/05 07:17:00;;;;;;;5.50;1.23;;;;;;;41.32;33.58;100177.31;7396037;19;20011;-89
2023/09/05 07:19:26;;;;;;;4.97;1.17;;;;;;;41.18;33.33;100181.94;7396016;19;20015;-89
2023/09/05 07:21:53;;;;;;;13.77;2.78;;;;;;;40.93;33.76;100177.56;7393076;19;20022;-91
2023/09/05 07:24:19;;;;;;;6.30;2.28;;;;;;;40.86;33.64;100178.06;7393513;19;20022;-89
2023/09/05 07:26:45;;;;;;;5.03;1.75;;;;;;;37.56;39.48;100189.47;7393812;19;20037;-90
2023/09/05 07:29:12;;;;;;;5.97;1.90;;;;;;;38.98;38.16;100179.47;7393244;19;20350;-90
2023/09/05 07:31:40;;;;;;;4.43;1.58;;;;;;;29.06;58.21;100199.75;7392711;19;20011;-90
2023/09/05 07:34:06;;;;;;;7.88;2.20;;;;;;;38.07;43.21;100184.47;7393128;19;20015;-90
2023/09/05 07:36:34;;;;;;;3.28;2.17;;;;;;;40.52;37.32;100186.47;7392197;19;20022;-89
2023/09/05 07:39:04;;;;;;;5.45;1.55;;;;;;;41.05;35.97;100188.88;7393220;19;20018;-87
2023/09/05 07:41:38;;;;;;;7.68;1.48;;;;;;;41.09;35.37;100189.72;7395986;19;20010;-89
2023/09/05 07:44:05;;;;;;;6.28;1.80;;;;;;;40.98;35.24;100190.84;7392030;19;20042;-88
2023/09/05 07:46:31;;;;;;;3.08;1.65;;;;;;;40.55;35.87;100193.84;7391982;19;20015;-89
2023/09/05 07:48:57;;;;;;;4.35;2.75;;;;;;;41.80;34.55;100200.56;7391784;19;20019;-89
2023/09/05 07:51:23;;;;;;;5.10;2.15;;;;;;;42.06;33.94;100207.16;7396054;19;20081;-89
2023/09/05 07:53:59;;;;;;;11.85;2.17;;;;;;;42.41;33.55;100208.78;7392649;19;20014;-88
2023/09/05 07:56:26;;;;;;;4.78;1.58;;;;;;;42.51;33.06;100201.00;7393687;19;20050;-90
2023/09/05 07:58:52;;;;;;;5.20;1.00;;;;;;;42.46;33.21;100205.25;7398746;19;20026;-90
2023/09/05 08:01:19;;;;;;;4.38;1.42;;;;;;;42.64;32.86;100208.63;7396892;19;20038;-89
2023/09/05 08:03:47;;;;;;;7.43;1.00;;;;;;;31.95;47.80;100222.66;7393384;19;20469;-89
2023/09/05 08:06:14;;;;;;;2.33;1.70;;;;;;;22.90;100.00;100232.00;7397251;19;20110;-90
2023/09/05 08:08:40;;;;;;;5.15;2.22;;;;;;;38.11;52.78;100207.91;7394786;19;20429;-89
2023/09/05 08:11:06;;;;;;;4.28;1.70;;;;;;;41.18;41.14;100200.22;7396078;19;20010;-89
2023/09/05 08:13:33;;;;;;;4.78;1.38;;;;;;;41.90;38.28;100192.06;7392537;19;20022;-90
2023/09/05 08:15:59;;;;;;;4.18;1.83;;;;;;;42.18;37.10;100186.97;7394080;19;20082;-91
2023/09/05 08:18:25;;;;;;;2.22;1.20;;;;;;;42.49;36.13;100183.38;7396843;19;20087;-89
2023/09/05 08:20:51;;;;;;;2.53;1.05;;;;;;;32.30;50.47;100197.66;7397635;19;20018;-89
2023/09/05 08:23:17;;;;;;;4.55;1.35;;;;;;;40.42;43.14;100177.38;7391906;19;20349;-90
2023/09/05 08:25:51;;;;;;;3.45;2.25;;;;;;;41.96;38.18;100180.50;7391579;19;20014;-90
2023/09/05 08:28:21;;;;;;;4.97;1.67;;;;;;;28.06;72.99;100198.00;7395723;19;20011;-90
2023/09/05 08:30:47;;;;;;;8.77;1.88;;;;;;;35.60;67.64;100182.78;7395527;19;20010;-90
2023/09/05 08:33:13;;;;;;;4.10;0.98;;;;;;;40.63;45.32;100186.09;7392564;19;20030;-90
2023/09/05 08:35:39;;;;;;;5.72;0.95;;;;;;;41.12;42.18;100188.38;7390919;19;20117;-91
2023/09/05 08:38:06;;;;;;;2.45;0.93;;;;;;;41.44;40.54;100189.31;7394408;19;20353;-90
2023/09/05 08:40:34;;;;;;;6.22;1.73;;;;;;;41.62;39.58;100173.72;7393246;19;20015;-90
2023/09/05 08:43:01;;;;;;;6.20;1.67;;;;;;;41.80;38.95;100168.38;7391830;19;20026;-90
2023/09/05 08:45:29;;;;;;;4.70;1.75;;;;;;;41.68;38.79;100170.97;7390699;19;20377;-90
2023/09/05 08:47:55;;;;;;;7.80;1.08;;;;;;;42.06;37.78;100158.13;7395889;19;20003;-94
2023/09/05 08:50:25;;;;;;;3.78;1.77;;;;;;;42.27;37.35;100165.22;7396455;19;20492;-93
2023/09/05 08:52:53;;;;;;;4.83;1.67;;;;;;;42.34;37.23;100175.66;7391984;19;20025;-90
2023/09/05 08:55:21;;;;;;;5.68;1.50;;;;;;;39.81;42.27;100157.78;7391978;19;20250;-94
2023/09/05 08:57:49;;;;;;;4.30;1.75;;;;;;;42.01;38.63;100164.53;7394422;19;20021;-90
2023/09/05 09:00:19;;;;;;;5.18;0.85;;;;;;;42.66;37.49;100163.97;7391155;19;20038;-92
2023/09/05 09:02:45;;;;;;;4.55;1.45;;;;;;;43.03;36.67;100162.63;7393928;19;20020;-91
2023/09/05 09:05:11;;;;;;;5.30;2.13;;;;;;;43.25;36.35;100163.88;7398211;19;20450;-90
2023/09/05 09:07:37;;;;;;;4.25;1.40;;;;;;;43.46;36.00;100162.06;7402769;19;20023;-90
2023/09/05 09:10:20;;;;;;;3.40;1.27;;;;;;;43.66;35.44;100165.41;7399002;19;20019;-92
2023/09/05 09:12:54;;;;;;;2.50;1.67;;;;;;;43.74;34.83;100159.69;7399244;19;20110;-91
2023/09/05 09:15:24;;;;;;;5.78;1.27;;;;;;;36.62;43.13;100172.03;7398615;19;20010;-93
2023/09/05 09:17:52;;;;;;;5.00;1.50;;;;;;;32.32;60.92;100166.06;7400632;19;20019;-93
2023/09/05 09:20:19;;;;;;;8.50;2.35;;;;;;;31.74;69.72;100162.13;7401189;19;20010;-94
2023/09/05 09:22:49;;;;;;;5.20;1.92;;;;;;;31.64;73.32;100156.44;7397027;19;20015;-92
2023/09/05 09:25:20;;;;;;;7.07;2.05;;;;;;;31.58;76.08;100152.41;7398083;19;20461;-91
2023/09/05 09:27:58;;;;;;;6.03;1.30;;;;;;;32.08;73.98;100155.81;7401405;19;20042;-90
2023/09/05 09:30:27;;;;;;;10.95;1.95;;;;;;;31.43;78.09;100151.44;7399484;19;20010;-89
2023/09/05 09:32:54;;;;;;;3.03;1.60;;;;;;;31.74;79.42;100157.13;7398168;19;20018;-91
2023/09/05 09:35:22;;;;;;;4.95;1.65;;;;;;;33.02;73.56;100157.59;7397018;19;20033;-90
2023/09/05 09:37:49;;;;;;;7.55;2.60;;;;;;;31.28;78.33;100160.44;7399372;19;20025;-87
2023/09/05 09:40:16;;;;;;;2.97;1.15;;;;;;;31.29;80.40;100150.44;7400332;19;20488;-91
2023/09/05 09:42:51;;;;;;;3.03;1.50;;;;;;;32.06;76.71;100167.22;7397337;19;20014;-91
2023/09/05 09:45:18;;;;;;;2.85;1.55;;;;;;;32.01;78.18;100159.69;7397187;19;20018;-89
2023/09/05 09:47:51;;;;;;;2.33;0.98;;;;;;;31.54;80.43;100163.63;7399746;19;20023;-90
2023/09/05 09:50:21;;;;;;;1.98;0.80;;;;;;;31.03;86.43;100167.97;7402203;19;20372;-91
2023/09/05 09:52:51;;;;;;;7.00;1.33;;;;;;;30.82;89.59;100165.75;7398206;19;20119;-90
2023/09/05 09:55:19;;;;;;;3.13;1.52;;;;;;;31.60;85.78;100159.03;7398003;19;20086;-90
2023/09/05 09:58:01;;;;;;;2.97;1.05;;;;;;;31.96;85.69;100163.66;7398158;19;20014;-91
2023/09/05 10:00:32;;;;;;;2.40;1.40;;;;;;;31.74;87.64;100156.38;7400537;19;20014;-90
2023/09/05 10:03:08;;;;;;;3.13;1.20;;;;;;;32.55;84.01;100157.50;7395463;19;20031;-90
2023/09/05 10:05:36;;;;;;;4.60;1.23;;;;;;;32.85;80.74;100161.59;7397421;19;20051;-90
2023/09/05 10:08:03;;;;;;;5.28;1.75;;;;;;;32.59;81.32;100154.13;7400005;19;20017;-89
2023/09/05 10:10:31;;;;;;;2.65;0.43;;;;;;;33.66;73.03;100149.31;7396968;19;20030;-91
2023/09/05 10:12:58;;;;;;;1.95;0.85;;;;;;;33.72;71.93;100143.88;7398584;19;20015;-92
2023/09/05 10:15:25;;;;;;;5.90;0.85;;;;;;;34.01;69.30;100150.72;7397271;19;20010;-90
2023/09/05 10:17:53;;;;;;;2.67;0.70;;;;;;;34.27;67.45;100146.44;7396976;19;20492;-92
2023/09/05 10:20:21;;;;;;;7.95;1.65;;;;;;;34.30;65.62;100153.88;7398714;19;20018;-92
2023/09/05 10:22:47;;;;;;;2.17;0.47;;;;;;;33.52;68.28;100146.31;7393330;19;20034;-85
2023/09/05 10:25:16;;;;;;;4.72;1.48;;;;;;;32.92;70.73;100149.03;7395571;19;20047;-85
2023/09/05 10:27:42;;;;;;;1.90;0.32;;;;;;;33.25;69.67;100140.28;7398048;19;20363;-85
2023/09/05 10:30:12;;;;;;;3.35;0.68;;;;;;;34.13;63.68;100139.84;7394254;19;20022;-85
2023/09/05 10:32:44;;;;;;;1.45;0.50;;;;;;;33.62;63.61;100144.00;7394960;19;20018;-85
2023/09/05 10:35:16;;;;;;;2.05;0.60;;;;;;;34.06;64.55;100138.00;7394793;19;20516;-85
2023/09/05 10:37:48;;;;;;;0.65;0.20;;;;;;;34.56;60.59;100136.50;7393373;19;20015;-85
2023/09/05 10:40:15;;;;;;;0.40;0.40;;;;;;;33.68;63.43;100132.09;7398044;19;20038;-84
2023/09/05 10:42:50;;;;;;;2.67;0.65;;;;;;;33.33;63.68;100137.91;7394580;19;20026;-84
2023/09/05 10:45:22;;;;;;;0.75;0.20;;;;;;;33.59;65.39;100125.06;7394431;19;20010;-84
2023/09/05 10:47:50;;;;;;;0.88;0.15;;;;;;;34.21;64.54;100119.31;7393560;19;20015;-85
2023/09/05 10:50:21;;;;;;;5.50;0.28;;;;;;;34.06;64.22;100120.66;7396192;19;20017;-83
2023/09/05 10:52:50;;;;;;;20.50;0.75;;;;;;;34.26;61.67;100118.91;7393896;19;20480;-84
2023/09/05 10:55:29;;;;;;;1.35;0.28;;;;;;;33.96;63.39;100122.91;7392870;19;20025;-84
2023/09/05 10:57:56;;;;;;;1.30;0.35;;;;;;;34.98;58.51;100118.56;7391429;19;20026;-84
2023/09/05 11:00:28;;;;;;;0.30;0.15;;;;;;;34.75;55.86;100112.97;7395881;19;20346;-84
2023/09/05 11:02:56;;;;;;;1.75;0.40;;;;;;;35.28;56.28;100116.56;7391818;19;20018;-83
2023/09/05 11:05:27;;;;;;;0.57;0.10;;;;;;;36.06;55.20;100111.22;7394576;19;20018;-84
2023/09/05 11:07:55;;;;;;;1.02;0.38;;;;;;;36.76;50.35;100111.72;7392580;19;20046;-84
2023/09/05 11:10:39;;;;;;;1.48;0.20;;;;;;;37.59;50.55;100115.47;7391913;19;20021;-84
2023/09/05 11:13:10;;;;;;;1.00;0.30;;;;;;;36.43;52.11;100120.28;7392954;19;20034;-84
2023/09/05 11:15:39;;;;;;;3.88;0.30;;;;;;;36.46;49.90;100110.28;7393116;19;20483;-83
2023/09/05 11:18:06;;;;;;;1.77;0.30;;;;;;;36.00;48.05;100108.00;7393086;19;20018;-83
2023/09/05 11:20:39;;;;;;;0.65;0.38;;;;;;;35.73;50.69;100106.66;7392476;19;20010;-84
2023/09/05 11:23:17;;;;;;;2.28;0.10;;;;;;;35.61;48.08;100108.94;7391086;19;20018;-84
2023/09/05 11:25:50;;;;;;;3.22;0.55;;;;;;;35.64;48.24;100096.06;7394101;19;20472;-84